sensor_id;sensor_type;location;lat;lon;timestamp;temperature;humidity
78467;SHT31;67759;51.972;5.650;2023-05-15T00:02:06;19.9;49.2
78467;SHT31;67759;51.972;5.650;2023-05-15T00:04:36;19.9;48.7
78467;SHT31;67759;51.972;5.650;2023-05-15T00:07:06;19.9;47.8
78467;SHT31;67759;51.972;5.650;2023-05-15T00:09:36;19.9;49.0
78467;SHT31;67759;51.972;5.650;2023-05-15T00:12:07;19.9;48.4
78467;SHT31;67759;51.972;5.650;2023-05-15T00:14:39;19.9;49.0
78467;SHT31;67759;51.972;5.650;2023-05-15T00:17:09;19.9;47.6
78467;SHT31;67759;51.972;5.650;2023-05-15T00:19:40;19.9;47.6
78467;SHT31;67759;51.972;5.650;2023-05-15T00:22:12;19.9;48.6
78467;SHT31;67759;51.972;5.650;2023-05-15T00:24:43;19.9;47.4
78467;SHT31;67759;51.972;5.650;2023-05-15T00:27:19;19.9;46.8
78467;SHT31;67759;51.972;5.650;2023-05-15T00:29:48;19.9;47.0
78467;SHT31;67759;51.972;5.650;2023-05-15T00:32:19;19.9;48.1
78467;SHT31;67759;51.972;5.650;2023-05-15T00:34:49;20.0;48.8
78467;SHT31;67759;51.972;5.650;2023-05-15T00:37:19;19.9;47.9
78467;SHT31;67759;51.972;5.650;2023-05-15T00:39:49;19.9;47.9
78467;SHT31;67759;51.972;5.650;2023-05-15T00:42:22;19.9;48.1
78467;SHT31;67759;51.972;5.650;2023-05-15T00:44:57;19.8;48.3
78467;SHT31;67759;51.972;5.650;2023-05-15T00:47:32;19.7;47.7
78467;SHT31;67759;51.972;5.650;2023-05-15T00:50:04;19.6;49.0
78467;SHT31;67759;51.972;5.650;2023-05-15T00:52:35;19.6;48.5
78467;SHT31;67759;51.972;5.650;2023-05-15T00:55:07;19.5;50.0
78467;SHT31;67759;51.972;5.650;2023-05-15T00:57:37;19.5;49.4
78467;SHT31;67759;51.972;5.650;2023-05-15T01:00:09;19.5;49.1
78467;SHT31;67759;51.972;5.650;2023-05-15T01:02:43;19.4;48.9
78467;SHT31;67759;51.972;5.650;2023-05-15T01:05:14;19.4;48.8
78467;SHT31;67759;51.972;5.650;2023-05-15T01:07:50;19.4;49.5
78467;SHT31;67759;51.972;5.650;2023-05-15T01:10:24;19.5;49.5
78467;SHT31;67759;51.972;5.650;2023-05-15T01:12:58;19.6;48.4
78467;SHT31;67759;51.972;5.650;2023-05-15T01:15:28;19.6;47.6
78467;SHT31;67759;51.972;5.650;2023-05-15T01:17:58;19.6;48.3
78467;SHT31;67759;51.972;5.650;2023-05-15T01:20:38;19.6;47.6
78467;SHT31;67759;51.972;5.650;2023-05-15T01:23:20;19.6;47.6
78467;SHT31;67759;51.972;5.650;2023-05-15T01:26:14;19.5;48.0
78467;SHT31;67759;51.972;5.650;2023-05-15T01:28:57;19.5;48.6
78467;SHT31;67759;51.972;5.650;2023-05-15T01:31:30;19.4;47.6
78467;SHT31;67759;51.972;5.650;2023-05-15T01:34:07;19.4;48.8
78467;SHT31;67759;51.972;5.650;2023-05-15T01:36:47;19.3;47.6
78467;SHT31;67759;51.972;5.650;2023-05-15T01:39:20;19.3;48.3
78467;SHT31;67759;51.972;5.650;2023-05-15T01:41:59;19.3;49.0
78467;SHT31;67759;51.972;5.650;2023-05-15T01:44:35;19.2;48.7
78467;SHT31;67759;51.972;5.650;2023-05-15T01:47:11;19.2;48.8
78467;SHT31;67759;51.972;5.650;2023-05-15T01:49:44;19.1;48.8
78467;SHT31;67759;51.972;5.650;2023-05-15T01:52:19;19.1;48.7
78467;SHT31;67759;51.972;5.650;2023-05-15T01:54:53;19.0;48.9
78467;SHT31;67759;51.972;5.650;2023-05-15T01:57:25;19.0;47.5
78467;SHT31;67759;51.972;5.650;2023-05-15T01:59:57;18.9;47.7
78467;SHT31;67759;51.972;5.650;2023-05-15T02:02:28;18.9;49.0
78467;SHT31;67759;51.972;5.650;2023-05-15T02:05:02;18.8;49.6
78467;SHT31;67759;51.972;5.650;2023-05-15T02:07:33;18.8;49.2
78467;SHT31;67759;51.972;5.650;2023-05-15T02:10:07;18.8;49.3
78467;SHT31;67759;51.972;5.650;2023-05-15T02:12:39;18.7;48.9
78467;SHT31;67759;51.972;5.650;2023-05-15T02:15:10;18.7;49.4
78467;SHT31;67759;51.972;5.650;2023-05-15T02:17:40;18.7;49.6
78467;SHT31;67759;51.972;5.650;2023-05-15T02:20:10;18.6;48.5
78467;SHT31;67759;51.972;5.650;2023-05-15T02:22:40;18.6;48.0
78467;SHT31;67759;51.972;5.650;2023-05-15T02:25:10;18.6;49.7
78467;SHT31;67759;51.972;5.650;2023-05-15T02:27:48;18.6;49.2
78467;SHT31;67759;51.972;5.650;2023-05-15T02:30:30;18.6;48.9
78467;SHT31;67759;51.972;5.650;2023-05-15T02:33:13;18.5;49.5
78467;SHT31;67759;51.972;5.650;2023-05-15T02:35:51;18.5;49.8
78467;SHT31;67759;51.972;5.650;2023-05-15T02:38:28;18.4;50.1
78467;SHT31;67759;51.972;5.650;2023-05-15T02:40:59;18.3;51.2
78467;SHT31;67759;51.972;5.650;2023-05-15T02:43:30;18.3;51.0
78467;SHT31;67759;51.972;5.650;2023-05-15T02:46:02;18.3;51.1
78467;SHT31;67759;51.972;5.650;2023-05-15T02:48:35;18.3;51.7
78467;SHT31;67759;51.972;5.650;2023-05-15T02:51:07;18.3;51.7
78467;SHT31;67759;51.972;5.650;2023-05-15T02:53:41;18.3;52.0
78467;SHT31;67759;51.972;5.650;2023-05-15T02:56:13;18.4;52.0
78467;SHT31;67759;51.972;5.650;2023-05-15T02:58:43;18.5;52.6
78467;SHT31;67759;51.972;5.650;2023-05-15T03:01:13;18.5;52.4
78467;SHT31;67759;51.972;5.650;2023-05-15T03:03:42;18.5;52.6
78467;SHT31;67759;51.972;5.650;2023-05-15T03:06:12;18.6;51.7
78467;SHT31;67759;51.972;5.650;2023-05-15T03:08:42;18.6;52.6
78467;SHT31;67759;51.972;5.650;2023-05-15T03:11:14;18.7;52.2
78467;SHT31;67759;51.972;5.650;2023-05-15T03:13:45;18.8;52.1
78467;SHT31;67759;51.972;5.650;2023-05-15T03:16:15;18.9;52.0
78467;SHT31;67759;51.972;5.650;2023-05-15T03:18:46;19.0;51.2
78467;SHT31;67759;51.972;5.650;2023-05-15T03:21:16;19.0;51.7
78467;SHT31;67759;51.972;5.650;2023-05-15T03:23:46;19.1;52.0
78467;SHT31;67759;51.972;5.650;2023-05-15T03:26:16;19.1;51.7
78467;SHT31;67759;51.972;5.650;2023-05-15T03:28:45;19.2;51.7
78467;SHT31;67759;51.972;5.650;2023-05-15T03:31:15;19.2;51.3
78467;SHT31;67759;51.972;5.650;2023-05-15T03:33:45;19.2;51.3
78467;SHT31;67759;51.972;5.650;2023-05-15T03:36:18;19.2;50.8
78467;SHT31;67759;51.972;5.650;2023-05-15T03:38:49;19.1;51.2
78467;SHT31;67759;51.972;5.650;2023-05-15T03:41:18;19.1;51.5
78467;SHT31;67759;51.972;5.650;2023-05-15T03:43:48;19.0;50.6
78467;SHT31;67759;51.972;5.650;2023-05-15T03:46:18;19.0;51.3
78467;SHT31;67759;51.972;5.650;2023-05-15T03:48:50;18.9;51.7
78467;SHT31;67759;51.972;5.650;2023-05-15T03:51:21;18.9;50.8
78467;SHT31;67759;51.972;5.650;2023-05-15T03:53:51;18.9;51.6
78467;SHT31;67759;51.972;5.650;2023-05-15T03:56:21;18.9;51.7
78467;SHT31;67759;51.972;5.650;2023-05-15T03:58:52;18.8;52.2
78467;SHT31;67759;51.972;5.650;2023-05-15T04:01:22;18.8;51.8
78467;SHT31;67759;51.972;5.650;2023-05-15T04:03:52;18.8;51.6
78467;SHT31;67759;51.972;5.650;2023-05-15T04:06:22;18.7;51.6
78467;SHT31;67759;51.972;5.650;2023-05-15T04:08:52;18.7;52.0
78467;SHT31;67759;51.972;5.650;2023-05-15T04:11:23;18.6;50.5
78467;SHT31;67759;51.972;5.650;2023-05-15T04:13:53;18.6;50.6
78467;SHT31;67759;51.972;5.650;2023-05-15T04:16:22;18.5;51.0
78467;SHT31;67759;51.972;5.650;2023-05-15T04:18:52;18.5;50.7
78467;SHT31;67759;51.972;5.650;2023-05-15T04:21:22;18.4;51.6
78467;SHT31;67759;51.972;5.650;2023-05-15T04:23:52;18.4;51.3
78467;SHT31;67759;51.972;5.650;2023-05-15T04:26:21;18.4;50.8
78467;SHT31;67759;51.972;5.650;2023-05-15T04:28:51;18.4;51.5
78467;SHT31;67759;51.972;5.650;2023-05-15T04:31:23;18.4;51.3
78467;SHT31;67759;51.972;5.650;2023-05-15T04:33:54;18.4;50.9
78467;SHT31;67759;51.972;5.650;2023-05-15T04:36:24;18.4;52.4
78467;SHT31;67759;51.972;5.650;2023-05-15T04:38:56;18.4;51.3
78467;SHT31;67759;51.972;5.650;2023-05-15T04:41:25;18.4;51.5
78467;SHT31;67759;51.972;5.650;2023-05-15T04:43:56;18.4;51.8
78467;SHT31;67759;51.972;5.650;2023-05-15T04:46:27;18.4;50.5
78467;SHT31;67759;51.972;5.650;2023-05-15T04:49:01;18.3;51.0
78467;SHT31;67759;51.972;5.650;2023-05-15T04:51:30;18.3;51.5
78467;SHT31;67759;51.972;5.650;2023-05-15T04:54:00;18.3;51.0
78467;SHT31;67759;51.972;5.650;2023-05-15T04:56:30;18.2;51.4
78467;SHT31;67759;51.972;5.650;2023-05-15T04:58:59;18.2;51.6
78467;SHT31;67759;51.972;5.650;2023-05-15T05:01:29;18.1;51.1
78467;SHT31;67759;51.972;5.650;2023-05-15T05:03:59;18.0;51.0
78467;SHT31;67759;51.972;5.650;2023-05-15T05:06:28;18.0;51.3
78467;SHT31;67759;51.972;5.650;2023-05-15T05:08:58;18.0;52.0
78467;SHT31;67759;51.972;5.650;2023-05-15T05:11:27;18.0;51.8
78467;SHT31;67759;51.972;5.650;2023-05-15T05:13:58;18.1;51.3
78467;SHT31;67759;51.972;5.650;2023-05-15T05:16:28;18.1;51.7
78467;SHT31;67759;51.972;5.650;2023-05-15T05:18:57;18.2;51.5
78467;SHT31;67759;51.972;5.650;2023-05-15T05:21:27;18.3;51.3
78467;SHT31;67759;51.972;5.650;2023-05-15T05:23:56;18.4;50.8
78467;SHT31;67759;51.972;5.650;2023-05-15T05:26:26;18.5;50.6
78467;SHT31;67759;51.972;5.650;2023-05-15T05:28:57;18.5;50.0
78467;SHT31;67759;51.972;5.650;2023-05-15T05:31:27;18.6;50.3
78467;SHT31;67759;51.972;5.650;2023-05-15T05:33:56;18.6;50.2
78467;SHT31;67759;51.972;5.650;2023-05-15T05:36:26;18.6;50.2
78467;SHT31;67759;51.972;5.650;2023-05-15T05:38:55;18.6;50.3
78467;SHT31;67759;51.972;5.650;2023-05-15T05:41:26;18.6;51.4
78467;SHT31;67759;51.972;5.650;2023-05-15T05:43:55;18.6;50.3
78467;SHT31;67759;51.972;5.650;2023-05-15T05:46:26;18.6;50.2
78467;SHT31;67759;51.972;5.650;2023-05-15T05:48:57;18.6;49.3
78467;SHT31;67759;51.972;5.650;2023-05-15T05:51:27;18.6;50.0
78467;SHT31;67759;51.972;5.650;2023-05-15T05:53:57;18.6;50.8
78467;SHT31;67759;51.972;5.650;2023-05-15T05:56:27;18.6;50.3
78467;SHT31;67759;51.972;5.650;2023-05-15T05:58:57;18.7;50.7
78467;SHT31;67759;51.972;5.650;2023-05-15T06:01:28;18.7;49.9
78467;SHT31;67759;51.972;5.650;2023-05-15T06:03:58;18.7;49.9
78467;SHT31;67759;51.972;5.650;2023-05-15T06:06:28;18.7;49.9
78467;SHT31;67759;51.972;5.650;2023-05-15T06:08:59;18.8;49.8
78467;SHT31;67759;51.972;5.650;2023-05-15T06:11:31;18.8;50.0
78467;SHT31;67759;51.972;5.650;2023-05-15T06:14:01;18.8;50.0
78467;SHT31;67759;51.972;5.650;2023-05-15T06:16:31;18.8;50.0
78467;SHT31;67759;51.972;5.650;2023-05-15T06:19:01;18.8;49.9
78467;SHT31;67759;51.972;5.650;2023-05-15T06:21:32;18.8;50.3
78467;SHT31;67759;51.972;5.650;2023-05-15T06:24:02;18.8;50.4
78467;SHT31;67759;51.972;5.650;2023-05-15T06:26:32;18.9;50.2
78467;SHT31;67759;51.972;5.650;2023-05-15T06:29:02;18.9;50.5
78467;SHT31;67759;51.972;5.650;2023-05-15T06:31:31;19.0;50.4
78467;SHT31;67759;51.972;5.650;2023-05-15T06:34:00;19.1;50.0
78467;SHT31;67759;51.972;5.650;2023-05-15T06:36:30;19.2;49.5
78467;SHT31;67759;51.972;5.650;2023-05-15T06:39:00;19.3;48.7
78467;SHT31;67759;51.972;5.650;2023-05-15T06:41:30;19.4;48.2
78467;SHT31;67759;51.972;5.650;2023-05-15T06:44:02;19.5;48.0
78467;SHT31;67759;51.972;5.650;2023-05-15T06:46:31;19.5;48.5
78467;SHT31;67759;51.972;5.650;2023-05-15T06:49:01;19.6;47.7
78467;SHT31;67759;51.972;5.650;2023-05-15T06:51:30;19.7;47.4
78467;SHT31;67759;51.972;5.650;2023-05-15T06:54:00;19.8;47.6
78467;SHT31;67759;51.972;5.650;2023-05-15T06:56:29;20.0;47.7
78467;SHT31;67759;51.972;5.650;2023-05-15T06:58:59;20.1;46.6
78467;SHT31;67759;51.972;5.650;2023-05-15T07:01:29;20.2;46.8
78467;SHT31;67759;51.972;5.650;2023-05-15T07:03:59;20.2;46.6
78467;SHT31;67759;51.972;5.650;2023-05-15T07:06:29;20.3;46.4
78467;SHT31;67759;51.972;5.650;2023-05-15T07:08:59;20.3;46.6
78467;SHT31;67759;51.972;5.650;2023-05-15T07:11:29;20.4;45.5
78467;SHT31;67759;51.972;5.650;2023-05-15T07:13:59;20.5;46.6
78467;SHT31;67759;51.972;5.650;2023-05-15T07:16:29;20.6;46.2
78467;SHT31;67759;51.972;5.650;2023-05-15T07:18:59;20.6;45.8
78467;SHT31;67759;51.972;5.650;2023-05-15T07:21:29;20.6;46.2
78467;SHT31;67759;51.972;5.650;2023-05-15T07:23:59;20.6;45.7
78467;SHT31;67759;51.972;5.650;2023-05-15T07:26:30;20.6;46.0
78467;SHT31;67759;51.972;5.650;2023-05-15T07:29:02;20.6;46.2
78467;SHT31;67759;51.972;5.650;2023-05-15T07:31:32;20.6;45.9
78467;SHT31;67759;51.972;5.650;2023-05-15T07:34:02;20.5;46.6
78467;SHT31;67759;51.972;5.650;2023-05-15T07:36:31;20.5;46.6
78467;SHT31;67759;51.972;5.650;2023-05-15T07:39:03;20.5;46.8
78467;SHT31;67759;51.972;5.650;2023-05-15T07:41:33;20.4;46.9
78467;SHT31;67759;51.972;5.650;2023-05-15T07:44:02;20.4;47.2
78467;SHT31;67759;51.972;5.650;2023-05-15T07:46:32;20.5;47.0
78467;SHT31;67759;51.972;5.650;2023-05-15T07:49:02;20.5;46.0
78467;SHT31;67759;51.972;5.650;2023-05-15T07:51:33;20.6;47.4
78467;SHT31;67759;51.972;5.650;2023-05-15T07:54:03;20.9;46.6
78467;SHT31;67759;51.972;5.650;2023-05-15T07:56:34;21.1;46.1
78467;SHT31;67759;51.972;5.650;2023-05-15T07:59:04;21.4;44.7
78467;SHT31;67759;51.972;5.650;2023-05-15T08:01:34;21.6;45.5
78467;SHT31;67759;51.972;5.650;2023-05-15T08:04:07;21.9;44.0
78467;SHT31;67759;51.972;5.650;2023-05-15T08:06:36;22.1;43.2
78467;SHT31;67759;51.972;5.650;2023-05-15T08:09:07;22.3;43.1
78467;SHT31;67759;51.972;5.650;2023-05-15T08:11:37;22.5;42.2
78467;SHT31;67759;51.972;5.650;2023-05-15T08:14:06;22.7;41.8
78467;SHT31;67759;51.972;5.650;2023-05-15T08:16:36;22.8;41.3
78467;SHT31;67759;51.972;5.650;2023-05-15T08:19:05;22.9;41.7
78467;SHT31;67759;51.972;5.650;2023-05-15T08:21:40;23.0;41.0
78467;SHT31;67759;51.972;5.650;2023-05-15T08:24:09;23.3;40.9
78467;SHT31;67759;51.972;5.650;2023-05-15T08:26:39;23.4;39.8
78467;SHT31;67759;51.972;5.650;2023-05-15T08:29:09;23.6;40.5
78467;SHT31;67759;51.972;5.650;2023-05-15T08:31:39;23.7;40.9
78467;SHT31;67759;51.972;5.650;2023-05-15T08:34:08;23.9;39.7
78467;SHT31;67759;51.972;5.650;2023-05-15T08:36:38;24.1;39.3
78467;SHT31;67759;51.972;5.650;2023-05-15T08:39:07;24.1;38.5
78467;SHT31;67759;51.972;5.650;2023-05-15T08:41:44;24.2;39.5
78467;SHT31;67759;51.972;5.650;2023-05-15T08:44:16;24.3;39.0
78467;SHT31;67759;51.972;5.650;2023-05-15T08:46:46;24.4;39.3
78467;SHT31;67759;51.972;5.650;2023-05-15T08:49:21;24.6;38.3
78467;SHT31;67759;51.972;5.650;2023-05-15T08:51:54;24.6;38.3
78467;SHT31;67759;51.972;5.650;2023-05-15T08:54:25;24.8;38.8
78467;SHT31;67759;51.972;5.650;2023-05-15T08:56:55;25.0;38.0
78467;SHT31;67759;51.972;5.650;2023-05-15T08:59:25;25.2;36.6
78467;SHT31;67759;51.972;5.650;2023-05-15T09:01:56;25.3;37.4
78467;SHT31;67759;51.972;5.650;2023-05-15T09:04:25;25.3;37.0
78467;SHT31;67759;51.972;5.650;2023-05-15T09:06:58;25.4;37.9
78467;SHT31;67759;51.972;5.650;2023-05-15T09:09:29;25.5;37.8
78467;SHT31;67759;51.972;5.650;2023-05-15T09:12:02;25.8;36.7
78467;SHT31;67759;51.972;5.650;2023-05-15T09:14:35;25.8;36.0
78467;SHT31;67759;51.972;5.650;2023-05-15T09:17:04;25.9;36.7
78467;SHT31;67759;51.972;5.650;2023-05-15T09:19:37;25.9;36.5
78467;SHT31;67759;51.972;5.650;2023-05-15T09:22:19;26.0;36.5
78467;SHT31;67759;51.972;5.650;2023-05-15T09:24:51;26.1;36.7
78467;SHT31;67759;51.972;5.650;2023-05-15T09:27:21;26.3;36.0
78467;SHT31;67759;51.972;5.650;2023-05-15T09:29:51;26.4;34.3
78467;SHT31;67759;51.972;5.650;2023-05-15T09:32:25;26.5;36.1
78467;SHT31;67759;51.972;5.650;2023-05-15T09:34:56;26.6;35.9
78467;SHT31;67759;51.972;5.650;2023-05-15T09:37:31;26.6;35.5
78467;SHT31;67759;51.972;5.650;2023-05-15T09:40:08;26.6;36.4
78467;SHT31;67759;51.972;5.650;2023-05-15T09:42:38;26.6;35.9
78467;SHT31;67759;51.972;5.650;2023-05-15T09:45:17;26.5;36.1
78467;SHT31;67759;51.972;5.650;2023-05-15T09:47:47;26.3;36.8
78467;SHT31;67759;51.972;5.650;2023-05-15T09:50:22;26.3;36.6
78467;SHT31;67759;51.972;5.650;2023-05-15T09:52:52;26.3;37.4
78467;SHT31;67759;51.972;5.650;2023-05-15T09:55:23;26.3;37.4
78467;SHT31;67759;51.972;5.650;2023-05-15T09:58:05;26.2;37.1
78467;SHT31;67759;51.972;5.650;2023-05-15T10:00:35;26.2;37.6
78467;SHT31;67759;51.972;5.650;2023-05-15T10:03:07;26.2;37.6
78467;SHT31;67759;51.972;5.650;2023-05-15T10:05:39;26.2;37.3
78467;SHT31;67759;51.972;5.650;2023-05-15T10:08:10;26.2;36.9
78467;SHT31;67759;51.972;5.650;2023-05-15T10:10:42;26.1;37.1
78467;SHT31;67759;51.972;5.650;2023-05-15T10:13:12;26.0;37.5
78467;SHT31;67759;51.972;5.650;2023-05-15T10:15:41;25.9;37.0
78467;SHT31;67759;51.972;5.650;2023-05-15T10:18:15;25.8;37.3
78467;SHT31;67759;51.972;5.650;2023-05-15T10:20:46;25.6;38.3
78467;SHT31;67759;51.972;5.650;2023-05-15T10:23:18;25.4;39.0
78467;SHT31;67759;51.972;5.650;2023-05-15T10:25:54;25.3;39.3
78467;SHT31;67759;51.972;5.650;2023-05-15T10:28:27;25.2;39.4
78467;SHT31;67759;51.972;5.650;2023-05-15T10:30:59;25.1;39.2
78467;SHT31;67759;51.972;5.650;2023-05-15T10:33:31;25.0;39.5
78467;SHT31;67759;51.972;5.650;2023-05-15T10:36:02;25.0;39.3
78467;SHT31;67759;51.972;5.650;2023-05-15T10:38:33;24.9;40.0
78467;SHT31;67759;51.972;5.650;2023-05-15T10:41:06;24.8;40.7
78467;SHT31;67759;51.972;5.650;2023-05-15T10:43:36;24.7;38.9
78467;SHT31;67759;51.972;5.650;2023-05-15T10:46:07;24.7;38.5
78467;SHT31;67759;51.972;5.650;2023-05-15T10:48:38;24.8;38.5
78467;SHT31;67759;51.972;5.650;2023-05-15T10:51:14;25.0;38.3
78467;SHT31;67759;51.972;5.650;2023-05-15T10:53:46;25.1;38.1
78467;SHT31;67759;51.972;5.650;2023-05-15T10:56:16;25.3;38.2
78467;SHT31;67759;51.972;5.650;2023-05-15T10:58:47;25.3;39.2
78467;SHT31;67759;51.972;5.650;2023-05-15T11:01:28;25.2;39.0
78467;SHT31;67759;51.972;5.650;2023-05-15T11:04:09;25.1;39.5
78467;SHT31;67759;51.972;5.650;2023-05-15T11:06:40;24.9;39.7
78467;SHT31;67759;51.972;5.650;2023-05-15T11:09:36;24.7;40.3
78467;SHT31;67759;51.972;5.650;2023-05-15T11:12:07;24.5;41.2
78467;SHT31;67759;51.972;5.650;2023-05-15T11:14:40;24.3;41.7
78467;SHT31;67759;51.972;5.650;2023-05-15T11:17:11;24.2;41.6
78467;SHT31;67759;51.972;5.650;2023-05-15T11:19:56;24.1;42.1
78467;SHT31;67759;51.972;5.650;2023-05-15T11:22:33;24.1;41.7
78467;SHT31;67759;51.972;5.650;2023-05-15T11:25:06;24.0;42.0
78467;SHT31;67759;51.972;5.650;2023-05-15T11:27:40;24.0;41.4
78467;SHT31;67759;51.972;5.650;2023-05-15T11:30:13;24.0;41.7
78467;SHT31;67759;51.972;5.650;2023-05-15T11:32:48;24.1;42.1
78467;SHT31;67759;51.972;5.650;2023-05-15T11:35:21;24.2;42.1
78467;SHT31;67759;51.972;5.650;2023-05-15T11:37:52;24.4;41.5
78467;SHT31;67759;51.972;5.650;2023-05-15T11:40:24;24.5;41.2
78467;SHT31;67759;51.972;5.650;2023-05-15T11:43:02;24.6;40.9
78467;SHT31;67759;51.972;5.650;2023-05-15T11:45:34;24.7;40.7
78467;SHT31;67759;51.972;5.650;2023-05-15T11:48:06;24.8;40.2
78467;SHT31;67759;51.972;5.650;2023-05-15T11:50:36;24.9;40.1
78467;SHT31;67759;51.972;5.650;2023-05-15T11:53:07;24.9;39.9
78467;SHT31;67759;51.972;5.650;2023-05-15T11:55:38;24.9;39.5
78467;SHT31;67759;51.972;5.650;2023-05-15T11:58:12;24.9;39.1
78467;SHT31;67759;51.972;5.650;2023-05-15T12:00:44;24.9;39.3
78467;SHT31;67759;51.972;5.650;2023-05-15T12:03:22;24.7;39.9
78467;SHT31;67759;51.972;5.650;2023-05-15T12:05:53;24.7;39.6
78467;SHT31;67759;51.972;5.650;2023-05-15T12:08:23;24.6;39.8
78467;SHT31;67759;51.972;5.650;2023-05-15T12:10:52;24.5;39.9
78467;SHT31;67759;51.972;5.650;2023-05-15T12:13:22;24.5;40.1
78467;SHT31;67759;51.972;5.650;2023-05-15T12:15:54;24.4;40.3
78467;SHT31;67759;51.972;5.650;2023-05-15T12:18:24;24.4;40.4
78467;SHT31;67759;51.972;5.650;2023-05-15T12:20:56;24.3;39.9
78467;SHT31;67759;51.972;5.650;2023-05-15T12:23:26;24.3;40.1
78467;SHT31;67759;51.972;5.650;2023-05-15T12:25:59;24.2;40.3
78467;SHT31;67759;51.972;5.650;2023-05-15T12:28:33;24.2;40.2
78467;SHT31;67759;51.972;5.650;2023-05-15T12:31:03;24.1;40.3
78467;SHT31;67759;51.972;5.650;2023-05-15T12:33:35;24.1;40.8
78467;SHT31;67759;51.972;5.650;2023-05-15T12:36:07;24.0;40.5
78467;SHT31;67759;51.972;5.650;2023-05-15T12:38:38;24.0;41.3
78467;SHT31;67759;51.972;5.650;2023-05-15T12:41:11;24.0;41.5
78467;SHT31;67759;51.972;5.650;2023-05-15T12:43:41;24.0;41.3
78467;SHT31;67759;51.972;5.650;2023-05-15T12:46:12;24.0;41.5
78467;SHT31;67759;51.972;5.650;2023-05-15T12:48:42;24.0;41.8
78467;SHT31;67759;51.972;5.650;2023-05-15T12:51:16;24.1;41.7
78467;SHT31;67759;51.972;5.650;2023-05-15T12:53:46;24.3;41.2
78467;SHT31;67759;51.972;5.650;2023-05-15T12:56:19;24.5;40.5
78467;SHT31;67759;51.972;5.650;2023-05-15T12:58:49;24.6;40.2
78467;SHT31;67759;51.972;5.650;2023-05-15T13:01:21;24.6;40.1
78467;SHT31;67759;51.972;5.650;2023-05-15T13:03:51;24.7;39.8
78467;SHT31;67759;51.972;5.650;2023-05-15T13:06:23;24.9;40.1
78467;SHT31;67759;51.972;5.650;2023-05-15T13:08:54;25.1;40.0
78467;SHT31;67759;51.972;5.650;2023-05-15T13:11:29;25.3;39.9
78467;SHT31;67759;51.972;5.650;2023-05-15T13:13:59;25.7;40.0
78467;SHT31;67759;51.972;5.650;2023-05-15T13:16:28;26.0;38.6
78467;SHT31;67759;51.972;5.650;2023-05-15T13:19:00;26.2;37.5
78467;SHT31;67759;51.972;5.650;2023-05-15T13:21:30;26.3;37.6
78467;SHT31;67759;51.972;5.650;2023-05-15T13:24:01;26.3;37.3
78467;SHT31;67759;51.972;5.650;2023-05-15T13:26:30;26.3;37.2
78467;SHT31;67759;51.972;5.650;2023-05-15T13:29:00;26.4;36.5
78467;SHT31;67759;51.972;5.650;2023-05-15T13:31:30;26.3;37.6
78467;SHT31;67759;51.972;5.650;2023-05-15T13:33:59;26.4;37.7
78467;SHT31;67759;51.972;5.650;2023-05-15T13:36:29;26.4;36.9
78467;SHT31;67759;51.972;5.650;2023-05-15T13:39:01;26.5;37.0
78467;SHT31;67759;51.972;5.650;2023-05-15T13:41:31;26.6;37.3
78467;SHT31;67759;51.972;5.650;2023-05-15T13:44:00;26.8;36.9
78467;SHT31;67759;51.972;5.650;2023-05-15T13:46:31;26.9;36.5
78467;SHT31;67759;51.972;5.650;2023-05-15T13:49:02;26.9;36.2
78467;SHT31;67759;51.972;5.650;2023-05-15T13:51:32;26.9;36.1
78467;SHT31;67759;51.972;5.650;2023-05-15T13:54:02;26.9;36.8
78467;SHT31;67759;51.972;5.650;2023-05-15T13:56:32;26.9;36.0
78467;SHT31;67759;51.972;5.650;2023-05-15T13:59:01;26.9;35.3
78467;SHT31;67759;51.972;5.650;2023-05-15T14:01:31;26.8;35.7
78467;SHT31;67759;51.972;5.650;2023-05-15T14:04:00;26.8;35.7
78467;SHT31;67759;51.972;5.650;2023-05-15T14:06:30;26.8;35.7
78467;SHT31;67759;51.972;5.650;2023-05-15T14:09:00;26.8;37.2
78467;SHT31;67759;51.972;5.650;2023-05-15T14:11:32;26.6;38.1
78467;SHT31;67759;51.972;5.650;2023-05-15T14:14:03;26.4;38.2
78467;SHT31;67759;51.972;5.650;2023-05-15T14:16:33;26.2;38.1
78467;SHT31;67759;51.972;5.650;2023-05-15T14:19:04;26.0;38.7
78467;SHT31;67759;51.972;5.650;2023-05-15T14:21:33;25.8;39.6
78467;SHT31;67759;51.972;5.650;2023-05-15T14:24:03;25.8;39.2
78467;SHT31;67759;51.972;5.650;2023-05-15T14:26:33;25.7;39.6
78467;SHT31;67759;51.972;5.650;2023-05-15T14:29:02;25.6;39.6
78467;SHT31;67759;51.972;5.650;2023-05-15T14:31:32;25.6;39.6
78467;SHT31;67759;51.972;5.650;2023-05-15T14:34:02;25.5;39.3
78467;SHT31;67759;51.972;5.650;2023-05-15T14:36:32;25.4;39.6
78467;SHT31;67759;51.972;5.650;2023-05-15T14:39:02;25.3;39.6
78467;SHT31;67759;51.972;5.650;2023-05-15T14:41:32;25.2;39.9
78467;SHT31;67759;51.972;5.650;2023-05-15T14:44:02;25.2;40.1
78467;SHT31;67759;51.972;5.650;2023-05-15T14:46:31;25.2;40.1
78467;SHT31;67759;51.972;5.650;2023-05-15T14:49:02;25.2;39.8
78467;SHT31;67759;51.972;5.650;2023-05-15T14:51:33;25.2;40.3
78467;SHT31;67759;51.972;5.650;2023-05-15T14:54:02;25.1;40.5
78467;SHT31;67759;51.972;5.650;2023-05-15T14:56:33;25.1;40.0
78467;SHT31;67759;51.972;5.650;2023-05-15T14:59:02;25.1;39.8
78467;SHT31;67759;51.972;5.650;2023-05-15T15:01:32;25.1;40.1
78467;SHT31;67759;51.972;5.650;2023-05-15T15:04:01;25.1;39.9
78467;SHT31;67759;51.972;5.650;2023-05-15T15:06:31;25.1;39.5
78467;SHT31;67759;51.972;5.650;2023-05-15T15:09:00;25.1;39.5
78467;SHT31;67759;51.972;5.650;2023-05-15T15:11:30;25.1;39.5
78467;SHT31;67759;51.972;5.650;2023-05-15T15:13:59;25.1;39.1
78467;SHT31;67759;51.972;5.650;2023-05-15T15:16:29;25.0;39.3
78467;SHT31;67759;51.972;5.650;2023-05-15T15:18:59;25.0;39.1
78467;SHT31;67759;51.972;5.650;2023-05-15T15:21:30;24.9;39.2
78467;SHT31;67759;51.972;5.650;2023-05-15T15:24:01;24.9;39.2
78467;SHT31;67759;51.972;5.650;2023-05-15T15:26:30;24.9;39.3
78467;SHT31;67759;51.972;5.650;2023-05-15T15:29:00;24.9;39.0
78467;SHT31;67759;51.972;5.650;2023-05-15T15:31:30;24.8;38.9
78467;SHT31;67759;51.972;5.650;2023-05-15T15:34:00;24.8;39.0
78467;SHT31;67759;51.972;5.650;2023-05-15T15:36:30;24.8;39.2
78467;SHT31;67759;51.972;5.650;2023-05-15T15:38:59;24.8;39.5
78467;SHT31;67759;51.972;5.650;2023-05-15T15:41:30;24.7;39.4
78467;SHT31;67759;51.972;5.650;2023-05-15T15:43:59;24.7;39.5
78467;SHT31;67759;51.972;5.650;2023-05-15T15:46:29;24.6;39.3
78467;SHT31;67759;51.972;5.650;2023-05-15T15:48:58;24.4;39.5
78467;SHT31;67759;51.972;5.650;2023-05-15T15:51:28;24.3;39.5
78467;SHT31;67759;51.972;5.650;2023-05-15T15:53:59;24.1;40.0
78467;SHT31;67759;51.972;5.650;2023-05-15T15:56:31;24.0;40.2
78467;SHT31;67759;51.972;5.650;2023-05-15T15:59:01;23.9;40.4
78467;SHT31;67759;51.972;5.650;2023-05-15T16:01:30;23.8;40.9
78467;SHT31;67759;51.972;5.650;2023-05-15T16:04:00;23.6;40.8
78467;SHT31;67759;51.972;5.650;2023-05-15T16:06:31;23.5;41.2
78467;SHT31;67759;51.972;5.650;2023-05-15T16:09:01;23.5;41.2
78467;SHT31;67759;51.972;5.650;2023-05-15T16:11:31;23.4;41.2
78467;SHT31;67759;51.972;5.650;2023-05-15T16:14:00;23.2;41.4
78467;SHT31;67759;51.972;5.650;2023-05-15T16:16:30;23.1;41.6
78467;SHT31;67759;51.972;5.650;2023-05-15T16:18:59;22.9;42.0
78467;SHT31;67759;51.972;5.650;2023-05-15T16:21:29;22.8;42.1
78467;SHT31;67759;51.972;5.650;2023-05-15T16:23:58;22.6;42.4
78467;SHT31;67759;51.972;5.650;2023-05-15T16:26:28;22.5;42.9
78467;SHT31;67759;51.972;5.650;2023-05-15T16:28:58;22.4;43.0